Snohomish County (Paine Field) Airport
KPAE : now visible

Airfield :











YOU CAN JOIN US ON...

 
LOGIN :

Register | Disclaimer

   EN    FR    IT 

 









Legend :    VFR   Marginal VFR   IFR   Intensive IFR   Very Intensive IFR
Visi :
Ceiling :
>= 8 km
>= 3000ft
5 to 8 km
1000 to 3000 ft
1500m to 5 km
500 to 1000 ft
800 to 1500m
200 to 500 ft
< 800m
< 200 ft
Symbols :   Thunderstorms  Fog  Heavy snow  Heavy precipitations  Wind > 20 kt






- Airport Elevation : 606 ft
- IATA code : PAE


KPAE - Snohomish County (Paine Field)

CURRENT METAR :
  • 271226Z AUTO 16013G21KT 10SM BKN017 BKN026 OVC110 13/12 A2975 RMK AO2 T01330117

EXPIRED METARs :
  • 271153Z AUTO 16011KT 10SM OVC100 13/11 A2975 RMK AO2 PK WND 18026/1117 RAB25E35 SLP073 P0000 60002 70105 T01330111 10156 20133 53017
  • 271053Z AUTO 17012KT 10SM BKN110 14/11 A2973 RMK AO2 PK WND 17026/1000 RAE09 SLP066 P0000 T01390106
  • 270953Z AUTO 18017KT 10SM -RA SCT011 OVC095 15/14 A2970 RMK AO2 PK WND 18033/0926 RAB11 SLP056 P0002 T01500139

TAF KPAE
Valid from the 27 at 12:00 until the 28 at 12:00 UTC


271123Z 2712/2812 18016KT P6SM -SHRA SCT015 OVC060
FM271800 18019KT 4SM SHRA SCT015 OVC020
FM272200 20014KT P6SM VCSH OVC050
FM280600 18020KT P6SM -SHRA SCT020 OVC030
KZSE FIR / North America



MET'MAP, your aeronautical weather chart ! - Copyright ORBIFLY December 2007 - Disclaimer

ORBIFLY MET'MAP TEAM :

Programming & Development : Alexandra Zaïnal
Concept & original design : Baudouin d'Aumeries
Assistance for programming : Marc-Olivier Méhu
Technical & hardware support : Manuel Goepfert

Contact : metmap@orbifly.com




SOURCES & CREDITS :

   NOAA       Earth
Advisory